AAL3170 KBNA-KDCA
Flight info
| Callsign | AAL3170 |
|---|---|
| Flight time | 1h 0m |
| Altitude | 39000 |
| Route | KRSTA3 OLSIE FFT HVQ TRUPS5 |
| Aircraft | A20N/M-SDE2E3FGHIRWXY/LB1 |
Departure
| Time | 2026-05-06 12:18 |
|---|---|
| Airport | Nashville International Airport (KBNA) |
Arrival
| Time | 2026-05-06 13:19 |
|---|---|
| Airport | Ronald Reagan Washington National Airport (KDCA) |
| Time | Latitude | Longitude | Altitude | Speed | Heading |
|---|---|---|---|---|---|
| 2026-05-06 11:57 | 36.12892 | -86.67153 | 572 ft | 0 kts | 82° |
| 2026-05-06 12:09 | 36.12891 | -86.67163 | 575 ft | 4 kts | 71° |
| 2026-05-06 12:09 | 36.12880 | -86.67178 | 573 ft | 4 kts | 334° |
| 2026-05-06 12:09 | 36.12862 | -86.67161 | 571 ft | 1 kts | 307° |
| 2026-05-06 12:12 | 36.12905 | -86.67203 | 568 ft | 14 kts | 353° |
| 2026-05-06 12:12 | 36.13007 | -86.67141 | 577 ft | 19 kts | 39° |
| 2026-05-06 12:13 | 36.13130 | -86.67108 | 569 ft | 20 kts | 328° |
| 2026-05-06 12:13 | 36.13186 | -86.67268 | 569 ft | 22 kts | 279° |
| 2026-05-06 12:13 | 36.13270 | -86.67355 | 570 ft | 16 kts | 1° |
| 2026-05-06 12:13 | 36.13381 | -86.67322 | 569 ft | 18 kts | 2° |
| 2026-05-06 12:14 | 36.13442 | -86.67427 | 564 ft | 14 kts | 283° |
| 2026-05-06 12:14 | 36.13480 | -86.67552 | 568 ft | 17 kts | 288° |
| 2026-05-06 12:14 | 36.13516 | -86.67688 | 574 ft | 17 kts | 288° |
| 2026-05-06 12:14 | 36.13477 | -86.67793 | 575 ft | 14 kts | 191° |
| 2026-05-06 12:15 | 36.13373 | -86.67821 | 572 ft | 17 kts | 201° |
| 2026-05-06 12:15 | 36.13290 | -86.67872 | 573 ft | 13 kts | 179° |
| 2026-05-06 12:15 | 36.13139 | -86.67927 | 573 ft | 30 kts | 197° |
| 2026-05-06 12:15 | 36.12925 | -86.68013 | 574 ft | 34 kts | 198° |
| 2026-05-06 12:16 | 36.12688 | -86.68100 | 575 ft | 37 kts | 195° |
| 2026-05-06 12:16 | 36.12427 | -86.68188 | 576 ft | 40 kts | 196° |
| 2026-05-06 12:16 | 36.12165 | -86.68285 | 583 ft | 39 kts | 196° |
| 2026-05-06 12:16 | 36.11909 | -86.68375 | 588 ft | 37 kts | 195° |
| 2026-05-06 12:17 | 36.11760 | -86.68435 | 594 ft | 9 kts | 218° |
| 2026-05-06 12:17 | 36.11741 | -86.68483 | 600 ft | 5 kts | 265° |
| 2026-05-06 12:17 | 36.11762 | -86.68589 | 615 ft | 15 kts | 291° |
| 2026-05-06 12:17 | 36.11845 | -86.68614 | 602 ft | 7 kts | 21° |
| 2026-05-06 12:18 | 36.11972 | -86.68573 | 599 ft | 55 kts | 16° |
| 2026-05-06 12:18 | 36.12648 | -86.68313 | 580 ft | 142 kts | 17° |
| 2026-05-06 12:18 | 36.13781 | -86.67858 | 846 ft | 185 kts | 17° |
| 2026-05-06 12:18 | 36.15057 | -86.67350 | 1711 ft | 203 kts | 14° |
| 2026-05-06 12:19 | 36.16470 | -86.66833 | 2592 ft | 219 kts | 12° |
| 2026-05-06 12:19 | 36.17962 | -86.66322 | 3468 ft | 227 kts | 12° |
| 2026-05-06 12:19 | 36.19546 | -86.65642 | 4029 ft | 255 kts | 16° |
| 2026-05-06 12:19 | 36.21267 | -86.64821 | 4792 ft | 274 kts | 15° |
| 2026-05-06 12:20 | 36.23099 | -86.63953 | 5645 ft | 288 kts | 14° |
| 2026-05-06 12:20 | 36.24991 | -86.63085 | 6712 ft | 291 kts | 13° |
| 2026-05-06 12:20 | 36.26905 | -86.62227 | 7783 ft | 295 kts | 13° |
| 2026-05-06 12:20 | 36.28850 | -86.61371 | 8835 ft | 299 kts | 12° |
| 2026-05-06 12:21 | 36.30821 | -86.60493 | 9921 ft | 303 kts | 13° |
| 2026-05-06 12:21 | 36.32830 | -86.59541 | 10666 ft | 320 kts | 13° |
| 2026-05-06 12:21 | 36.34987 | -86.58505 | 11058 ft | 345 kts | 14° |
| 2026-05-06 12:21 | 36.37292 | -86.57392 | 11576 ft | 363 kts | 14° |
| 2026-05-06 12:22 | 36.39664 | -86.56237 | 12434 ft | 368 kts | 14° |
| 2026-05-06 12:22 | 36.42069 | -86.55067 | 13334 ft | 374 kts | 14° |
| 2026-05-06 12:22 | 36.44515 | -86.53883 | 14149 ft | 381 kts | 13° |
| 2026-05-06 12:22 | 36.47008 | -86.52680 | 14886 ft | 388 kts | 13° |
| 2026-05-06 12:23 | 36.49545 | -86.51459 | 15632 ft | 394 kts | 13° |
| 2026-05-06 12:23 | 36.52121 | -86.50221 | 16344 ft | 401 kts | 13° |
| 2026-05-06 12:23 | 36.54738 | -86.48961 | 17048 ft | 407 kts | 13° |
| 2026-05-06 12:23 | 36.57397 | -86.47678 | 17706 ft | 413 kts | 13° |
| 2026-05-06 12:24 | 36.60090 | -86.46360 | 18355 ft | 420 kts | 13° |
| 2026-05-06 12:24 | 36.62808 | -86.44970 | 19014 ft | 424 kts | 14° |
| 2026-05-06 12:24 | 36.65538 | -86.43554 | 19691 ft | 427 kts | 14° |
| 2026-05-06 12:24 | 36.68294 | -86.42127 | 20332 ft | 431 kts | 13° |
| 2026-05-06 12:25 | 36.71078 | -86.40691 | 20926 ft | 437 kts | 13° |
| 2026-05-06 12:25 | 36.73880 | -86.39108 | 21524 ft | 448 kts | 18° |
| 2026-05-06 12:25 | 36.76653 | -86.37302 | 22175 ft | 452 kts | 18° |
| 2026-05-06 12:25 | 36.79456 | -86.35488 | 22808 ft | 456 kts | 18° |
| 2026-05-06 12:26 | 36.82250 | -86.33683 | 23423 ft | 460 kts | 18° |
| 2026-05-06 12:26 | 36.85105 | -86.31838 | 23951 ft | 465 kts | 18° |
| 2026-05-06 12:26 | 36.87991 | -86.29970 | 24453 ft | 469 kts | 18° |
| 2026-05-06 12:26 | 36.90902 | -86.28085 | 24946 ft | 474 kts | 18° |
| 2026-05-06 12:27 | 36.93841 | -86.26178 | 25467 ft | 479 kts | 17° |
| 2026-05-06 12:27 | 36.96822 | -86.24244 | 25799 ft | 486 kts | 17° |
| 2026-05-06 12:27 | 36.99842 | -86.22282 | 26288 ft | 490 kts | 17° |
| 2026-05-06 12:27 | 37.02879 | -86.20306 | 26745 ft | 495 kts | 17° |
| 2026-05-06 12:28 | 37.05949 | -86.18306 | 27187 ft | 499 kts | 17° |
| 2026-05-06 12:28 | 37.09033 | -86.16294 | 27712 ft | 500 kts | 17° |
| 2026-05-06 12:28 | 37.12133 | -86.14270 | 28135 ft | 505 kts | 17° |
| 2026-05-06 12:28 | 37.15260 | -86.12230 | 28525 ft | 509 kts | 17° |
| 2026-05-06 12:29 | 37.18417 | -86.10171 | 28915 ft | 514 kts | 17° |
| 2026-05-06 12:29 | 37.21579 | -86.07983 | 29243 ft | 526 kts | 22° |
| 2026-05-06 12:29 | 37.24587 | -86.05253 | 29656 ft | 541 kts | 31° |
| 2026-05-06 12:29 | 37.27384 | -86.02012 | 29971 ft | 551 kts | 36° |
| 2026-05-06 12:30 | 37.30153 | -85.98667 | 30317 ft | 554 kts | 36° |
| 2026-05-06 12:30 | 37.32937 | -85.95313 | 30693 ft | 556 kts | 36° |
| 2026-05-06 12:30 | 37.35734 | -85.91945 | 31081 ft | 558 kts | 36° |
| 2026-05-06 12:30 | 37.38535 | -85.88567 | 31513 ft | 558 kts | 36° |
| 2026-05-06 12:31 | 37.41335 | -85.85185 | 32085 ft | 556 kts | 35° |
| 2026-05-06 12:31 | 37.44115 | -85.81821 | 32637 ft | 554 kts | 35° |
| 2026-05-06 12:31 | 37.46889 | -85.78464 | 33057 ft | 554 kts | 35° |
| 2026-05-06 12:31 | 37.49665 | -85.75103 | 33468 ft | 554 kts | 34° |
| 2026-05-06 12:32 | 37.52442 | -85.71737 | 33881 ft | 554 kts | 34° |
| 2026-05-06 12:32 | 37.55218 | -85.68369 | 34245 ft | 553 kts | 34° |
| 2026-05-06 12:32 | 37.57986 | -85.65005 | 34610 ft | 553 kts | 34° |
| 2026-05-06 12:32 | 37.60753 | -85.61639 | 34958 ft | 552 kts | 34° |
| 2026-05-06 12:33 | 37.63517 | -85.58275 | 35327 ft | 552 kts | 34° |
| 2026-05-06 12:33 | 37.66245 | -85.54951 | 35630 ft | 552 kts | 34° |
| 2026-05-06 12:33 | 37.69004 | -85.51584 | 35964 ft | 552 kts | 34° |
| 2026-05-06 12:33 | 37.71762 | -85.48214 | 36278 ft | 552 kts | 34° |
| 2026-05-06 12:34 | 37.74518 | -85.44843 | 36581 ft | 551 kts | 34° |
| 2026-05-06 12:34 | 37.77273 | -85.41470 | 36889 ft | 551 kts | 34° |
| 2026-05-06 12:34 | 37.80018 | -85.38102 | 37241 ft | 549 kts | 34° |
| 2026-05-06 12:34 | 37.82757 | -85.34740 | 37526 ft | 549 kts | 34° |
| 2026-05-06 12:35 | 37.85496 | -85.31376 | 37792 ft | 549 kts | 33° |
| 2026-05-06 12:35 | 37.88235 | -85.28009 | 38116 ft | 549 kts | 33° |
| 2026-05-06 12:35 | 37.90971 | -85.24641 | 38352 ft | 548 kts | 33° |
| 2026-05-06 12:35 | 37.93704 | -85.21273 | 38614 ft | 548 kts | 33° |
| 2026-05-06 12:36 | 37.96431 | -85.17908 | 38835 ft | 547 kts | 33° |
| 2026-05-06 12:36 | 37.99153 | -85.14545 | 38924 ft | 546 kts | 33° |
| 2026-05-06 12:36 | 38.04577 | -85.07834 | 38932 ft | 544 kts | 33° |
| 2026-05-06 12:37 | 38.09990 | -85.01121 | 38969 ft | 543 kts | 33° |
| 2026-05-06 12:37 | 38.15203 | -84.94156 | 38945 ft | 557 kts | 45° |
| 2026-05-06 12:38 | 38.17256 | -84.89914 | 38944 ft | 571 kts | 58° |
| 2026-05-06 12:38 | 38.18736 | -84.85196 | 38943 ft | 579 kts | 71° |
| 2026-05-06 12:38 | 38.19575 | -84.80182 | 38943 ft | 582 kts | 83° |
| 2026-05-06 12:38 | 38.19841 | -84.75054 | 38939 ft | 582 kts | 89° |
| 2026-05-06 12:39 | 38.20082 | -84.65255 | 38895 ft | 582 kts | 88° |
| 2026-05-06 12:39 | 38.20586 | -84.54994 | 38915 ft | 582 kts | 86° |
| 2026-05-06 12:40 | 38.21220 | -84.44738 | 38915 ft | 582 kts | 85° |
| 2026-05-06 12:40 | 38.21757 | -84.36206 | 38914 ft | 582 kts | 85° |
| 2026-05-06 12:41 | 38.22392 | -84.25942 | 38915 ft | 582 kts | 85° |
| 2026-05-06 12:41 | 38.23016 | -84.15678 | 38931 ft | 582 kts | 85° |
| 2026-05-06 12:42 | 38.23631 | -84.05401 | 38938 ft | 583 kts | 85° |
| 2026-05-06 12:42 | 38.24237 | -83.95125 | 38940 ft | 583 kts | 85° |
| 2026-05-06 12:43 | 38.24833 | -83.84853 | 38886 ft | 582 kts | 85° |
| 2026-05-06 12:43 | 38.25421 | -83.74588 | 38875 ft | 581 kts | 85° |
| 2026-05-06 12:44 | 38.25999 | -83.64332 | 38876 ft | 581 kts | 85° |
| 2026-05-06 12:44 | 38.26568 | -83.54076 | 38864 ft | 581 kts | 85° |
| 2026-05-06 12:45 | 38.27127 | -83.43825 | 38855 ft | 580 kts | 85° |
| 2026-05-06 12:46 | 38.27949 | -83.28458 | 38850 ft | 580 kts | 85° |
| 2026-05-06 12:46 | 38.28486 | -83.18218 | 38852 ft | 580 kts | 85° |
| 2026-05-06 12:47 | 38.29013 | -83.07978 | 38842 ft | 580 kts | 85° |
| 2026-05-06 12:47 | 38.29531 | -82.97740 | 38842 ft | 579 kts | 85° |
| 2026-05-06 12:48 | 38.30040 | -82.87499 | 38846 ft | 580 kts | 85° |
| 2026-05-06 12:48 | 38.30543 | -82.77249 | 38844 ft | 580 kts | 85° |
| 2026-05-06 12:49 | 38.31034 | -82.66998 | 38878 ft | 580 kts | 85° |
| 2026-05-06 12:49 | 38.31720 | -82.52379 | 38870 ft | 579 kts | 85° |
| 2026-05-06 12:50 | 38.32651 | -82.31926 | 38839 ft | 577 kts | 85° |
| 2026-05-06 12:50 | 38.33542 | -82.11508 | 38845 ft | 578 kts | 85° |
| 2026-05-06 12:51 | 38.34398 | -81.91071 | 38844 ft | 577 kts | 86° |
| 2026-05-06 12:51 | 38.34623 | -81.66605 | 38860 ft | 577 kts | 92° |
| 2026-05-06 12:52 | 38.33320 | -81.25813 | 38851 ft | 575 kts | 92° |
| 2026-05-06 12:52 | 38.31845 | -80.85135 | 38862 ft | 574 kts | 92° |
| 2026-05-06 12:53 | 38.30285 | -80.44526 | 38893 ft | 575 kts | 92° |
| 2026-05-06 12:53 | 38.28606 | -80.04239 | 38907 ft | 570 kts | 92° |
| 2026-05-06 12:54 | 38.28065 | -79.91816 | 38890 ft | 570 kts | 92° |
| 2026-05-06 12:54 | 38.27842 | -79.86780 | 38690 ft | 571 kts | 92° |
| 2026-05-06 12:54 | 38.27617 | -79.81738 | 38438 ft | 570 kts | 92° |
| 2026-05-06 12:54 | 38.27607 | -79.76711 | 38046 ft | 567 kts | 82° |
| 2026-05-06 12:55 | 38.28177 | -79.71764 | 37281 ft | 563 kts | 71° |
| 2026-05-06 12:55 | 38.29338 | -79.66976 | 36530 ft | 555 kts | 61° |
| 2026-05-06 12:55 | 38.30844 | -79.62574 | 35817 ft | 551 kts | 59° |
| 2026-05-06 12:55 | 38.32389 | -79.58127 | 35104 ft | 552 kts | 59° |
| 2026-05-06 12:56 | 38.33937 | -79.53650 | 34322 ft | 552 kts | 60° |
| 2026-05-06 12:56 | 38.35481 | -79.49165 | 33495 ft | 553 kts | 60° |
| 2026-05-06 12:56 | 38.37016 | -79.44680 | 32752 ft | 551 kts | 60° |
| 2026-05-06 12:56 | 38.38538 | -79.40213 | 31969 ft | 549 kts | 60° |
| 2026-05-06 12:57 | 38.40058 | -79.35752 | 31144 ft | 548 kts | 61° |
| 2026-05-06 12:57 | 38.41565 | -79.31291 | 30293 ft | 549 kts | 64° |
| 2026-05-06 12:57 | 38.42751 | -79.26642 | 29482 ft | 551 kts | 73° |
| 2026-05-06 12:57 | 38.43580 | -79.21912 | 29048 ft | 539 kts | 75° |
| 2026-05-06 12:58 | 38.44388 | -79.17302 | 28700 ft | 526 kts | 74° |
| 2026-05-06 12:58 | 38.45187 | -79.12786 | 28115 ft | 519 kts | 75° |
| 2026-05-06 12:58 | 38.45979 | -79.08317 | 27493 ft | 514 kts | 75° |
| 2026-05-06 12:58 | 38.46760 | -79.03882 | 26989 ft | 507 kts | 75° |
| 2026-05-06 12:59 | 38.47516 | -78.99560 | 26693 ft | 494 kts | 75° |
| 2026-05-06 12:59 | 38.48257 | -78.95311 | 26201 ft | 487 kts | 75° |
| 2026-05-06 12:59 | 38.48987 | -78.91113 | 25702 ft | 481 kts | 76° |
| 2026-05-06 12:59 | 38.49707 | -78.86969 | 25197 ft | 476 kts | 76° |
| 2026-05-06 13:00 | 38.50411 | -78.82863 | 24696 ft | 471 kts | 77° |
| 2026-05-06 13:00 | 38.51054 | -78.78850 | 24185 ft | 466 kts | 78° |
| 2026-05-06 13:00 | 38.51681 | -78.74810 | 23711 ft | 461 kts | 78° |
| 2026-05-06 13:00 | 38.52299 | -78.70814 | 23185 ft | 456 kts | 78° |
| 2026-05-06 13:01 | 38.52910 | -78.66867 | 22706 ft | 450 kts | 78° |
| 2026-05-06 13:01 | 38.53516 | -78.62982 | 22240 ft | 443 kts | 78° |
| 2026-05-06 13:01 | 38.54125 | -78.59149 | 21773 ft | 437 kts | 78° |
| 2026-05-06 13:01 | 38.54730 | -78.55372 | 21311 ft | 432 kts | 78° |
| 2026-05-06 13:02 | 38.55332 | -78.51641 | 20858 ft | 426 kts | 78° |
| 2026-05-06 13:02 | 38.55921 | -78.47953 | 20413 ft | 422 kts | 78° |
| 2026-05-06 13:02 | 38.56498 | -78.44297 | 19962 ft | 417 kts | 78° |
| 2026-05-06 13:02 | 38.57068 | -78.40681 | 19518 ft | 413 kts | 78° |
| 2026-05-06 13:03 | 38.57642 | -78.37104 | 19064 ft | 409 kts | 78° |
| 2026-05-06 13:03 | 38.58253 | -78.33570 | 18621 ft | 405 kts | 77° |
| 2026-05-06 13:03 | 38.58873 | -78.30069 | 18162 ft | 402 kts | 77° |
| 2026-05-06 13:03 | 38.59484 | -78.26605 | 17683 ft | 397 kts | 77° |
| 2026-05-06 13:04 | 38.60261 | -78.23254 | 17276 ft | 390 kts | 68° |
| 2026-05-06 13:04 | 38.61302 | -78.20079 | 16924 ft | 385 kts | 66° |
| 2026-05-06 13:04 | 38.62328 | -78.16929 | 16501 ft | 382 kts | 66° |
| 2026-05-06 13:04 | 38.63337 | -78.13806 | 16079 ft | 378 kts | 66° |
| 2026-05-06 13:05 | 38.64334 | -78.10710 | 15667 ft | 374 kts | 66° |
| 2026-05-06 13:05 | 38.65313 | -78.07674 | 15275 ft | 369 kts | 68° |
| 2026-05-06 13:05 | 38.66286 | -78.04657 | 14942 ft | 363 kts | 68° |
| 2026-05-06 13:05 | 38.67258 | -78.01637 | 14407 ft | 376 kts | 69° |
| 2026-05-06 13:06 | 38.68287 | -77.98423 | 14021 ft | 401 kts | 69° |
| 2026-05-06 13:06 | 38.69349 | -77.95112 | 13880 ft | 400 kts | 69° |
| 2026-05-06 13:06 | 38.70393 | -77.91857 | 13805 ft | 390 kts | 69° |
| 2026-05-06 13:06 | 38.71405 | -77.88700 | 13684 ft | 377 kts | 69° |
| 2026-05-06 13:07 | 38.72382 | -77.85651 | 13577 ft | 363 kts | 70° |
| 2026-05-06 13:07 | 38.73501 | -77.82811 | 13447 ft | 352 kts | 58° |
| 2026-05-06 13:07 | 38.74956 | -77.80349 | 13183 ft | 345 kts | 48° |
| 2026-05-06 13:07 | 38.76552 | -77.78075 | 12769 ft | 342 kts | 48° |
| 2026-05-06 13:08 | 38.78129 | -77.75814 | 12381 ft | 339 kts | 48° |
| 2026-05-06 13:08 | 38.79692 | -77.73565 | 11960 ft | 337 kts | 48° |
| 2026-05-06 13:08 | 38.81241 | -77.71329 | 11604 ft | 334 kts | 48° |
| 2026-05-06 13:08 | 38.82778 | -77.69103 | 11165 ft | 333 kts | 49° |
| 2026-05-06 13:09 | 38.84268 | -77.66883 | 10731 ft | 333 kts | 50° |
| 2026-05-06 13:09 | 38.85768 | -77.64612 | 10260 ft | 334 kts | 50° |
| 2026-05-06 13:09 | 38.87268 | -77.62337 | 9783 ft | 334 kts | 50° |
| 2026-05-06 13:09 | 38.88775 | -77.60056 | 9279 ft | 335 kts | 50° |
| 2026-05-06 13:10 | 38.90259 | -77.57812 | 9059 ft | 324 kts | 49° |
| 2026-05-06 13:10 | 38.91703 | -77.55631 | 8776 ft | 318 kts | 49° |
| 2026-05-06 13:10 | 38.93128 | -77.53481 | 8453 ft | 314 kts | 49° |
| 2026-05-06 13:10 | 38.94399 | -77.51230 | 8120 ft | 309 kts | 62° |
| 2026-05-06 13:11 | 38.95287 | -77.48745 | 8029 ft | 307 kts | 69° |
| 2026-05-06 13:11 | 38.96118 | -77.46220 | 7972 ft | 306 kts | 69° |
| 2026-05-06 13:11 | 38.96959 | -77.43705 | 7619 ft | 308 kts | 69° |
| 2026-05-06 13:11 | 38.97957 | -77.41256 | 7115 ft | 314 kts | 54° |
| 2026-05-06 13:12 | 38.99341 | -77.39066 | 6583 ft | 318 kts | 50° |
| 2026-05-06 13:12 | 39.00774 | -77.36910 | 6182 ft | 316 kts | 48° |
| 2026-05-06 13:12 | 39.02225 | -77.34798 | 5739 ft | 315 kts | 47° |
| 2026-05-06 13:12 | 39.03689 | -77.32708 | 5340 ft | 313 kts | 46° |
| 2026-05-06 13:13 | 39.05035 | -77.30514 | 4841 ft | 314 kts | 63° |
| 2026-05-06 13:13 | 39.05541 | -77.27850 | 4467 ft | 303 kts | 97° |
| 2026-05-06 13:13 | 39.04944 | -77.25424 | 4332 ft | 272 kts | 133° |
| 2026-05-06 13:13 | 39.03684 | -77.23852 | 4225 ft | 248 kts | 150° |
| 2026-05-06 13:14 | 39.02351 | -77.22529 | 4123 ft | 237 kts | 150° |
| 2026-05-06 13:14 | 39.01119 | -77.21194 | 4044 ft | 227 kts | 148° |
| 2026-05-06 13:14 | 38.99968 | -77.19868 | 3967 ft | 217 kts | 148° |
| 2026-05-06 13:14 | 38.98873 | -77.18601 | 3885 ft | 206 kts | 149° |
| 2026-05-06 13:15 | 38.97835 | -77.17398 | 3812 ft | 195 kts | 149° |
| 2026-05-06 13:15 | 38.96883 | -77.16291 | 3775 ft | 176 kts | 151° |
| 2026-05-06 13:15 | 38.96017 | -77.15277 | 3675 ft | 161 kts | 151° |
| 2026-05-06 13:15 | 38.95220 | -77.14366 | 3570 ft | 147 kts | 154° |
| 2026-05-06 13:16 | 38.94476 | -77.13509 | 3410 ft | 142 kts | 154° |
| 2026-05-06 13:16 | 38.93765 | -77.12683 | 3271 ft | 130 kts | 154° |
| 2026-05-06 13:16 | 38.93102 | -77.11928 | 3053 ft | 127 kts | 156° |
| 2026-05-06 13:16 | 38.92454 | -77.11165 | 2801 ft | 126 kts | 156° |
| 2026-05-06 13:17 | 38.91808 | -77.10438 | 2606 ft | 125 kts | 157° |
| 2026-05-06 13:17 | 38.91184 | -77.09674 | 2473 ft | 127 kts | 152° |
| 2026-05-06 13:17 | 38.90698 | -77.08632 | 2243 ft | 148 kts | 132° |
| 2026-05-06 13:17 | 38.90244 | -77.07387 | 1853 ft | 150 kts | 131° |
| 2026-05-06 13:18 | 38.89682 | -77.06293 | 1735 ft | 159 kts | 144° |
| 2026-05-06 13:18 | 38.88932 | -77.05221 | 1483 ft | 156 kts | 141° |
| 2026-05-06 13:18 | 38.88201 | -77.04265 | 1000 ft | 145 kts | 153° |
| 2026-05-06 13:18 | 38.87296 | -77.03931 | 526 ft | 135 kts | 175° |
| 2026-05-06 13:19 | 38.86406 | -77.03884 | 178 ft | 126 kts | 178° |
| 2026-05-06 13:19 | 38.85568 | -77.03817 | 27 ft | 110 kts | 176° |
| 2026-05-06 13:19 | 38.85102 | -77.03776 | 25 ft | 24 kts | 175° |
| 2026-05-06 13:19 | 38.84830 | -77.03754 | 24 ft | 50 kts | 176° |
| 2026-05-06 13:20 | 38.84721 | -77.03880 | 29 ft | 17 kts | 290° |
| 2026-05-06 13:20 | 38.84721 | -77.03979 | 26 ft | 5 kts | 234° |
| 2026-05-06 13:20 | 38.84645 | -77.04027 | 26 ft | 11 kts | 205° |
| 2026-05-06 13:20 | 38.84609 | -77.04107 | 30 ft | 8 kts | 285° |
| 2026-05-06 13:21 | 38.84629 | -77.04120 | 29 ft | 5 kts | 5° |
| 2026-05-06 13:21 | 38.84687 | -77.04133 | 25 ft | 10 kts | 342° |
| 2026-05-06 13:21 | 38.84752 | -77.04173 | 25 ft | 6 kts | 300° |
| 2026-05-06 13:21 | 38.84750 | -77.04182 | 23 ft | 1 kts | 252° |
| 2026-05-06 13:22 | 38.84743 | -77.04191 | 27 ft | 3 kts | 232° |
| 2026-05-06 13:22 | 38.84726 | -77.04220 | 25 ft | 0 kts | 232° |